Time;durP1;ratioP1;P1;durP2;ratioP2;P2;SDS_P1;SDS_P2;PMS_P1;PMS_P2;Temp;Humidity;BMP_temperature;BMP_pressure;BME280_temperature;BME280_humidity;BME280_pressure;Samples;Min_cycle;Max_cycle;Signal;HPM_P1;HPM_P2
2021/04/08 00:02:23;;;;;;;11.27;5.70;;;2.40;99.90;;;;;;5009562;28;20221;-79
2021/04/08 00:04:50;;;;;;;12.23;4.07;;;2.40;99.90;;;;;;5009215;28;20293;-77
2021/04/08 00:07:17;;;;;;;12.65;5.82;;;2.30;99.90;;;;;;5011722;28;20193;-78
2021/04/08 00:09:44;;;;;;;11.30;4.38;;;2.40;99.90;;;;;;5006738;28;20220;-78
2021/04/08 00:12:11;;;;;;;8.05;3.80;;;2.40;99.90;;;;;;5007079;28;20204;-78
2021/04/08 00:14:37;;;;;;;13.05;3.90;;;2.40;99.90;;;;;;4993866;28;20210;-78
2021/04/08 00:17:06;;;;;;;13.18;4.68;;;2.40;99.90;;;;;;5004821;28;20244;-77
2021/04/08 00:19:32;;;;;;;11.93;5.10;;;2.40;99.90;;;;;;4992070;28;20263;-81
2021/04/08 00:21:59;;;;;;;11.73;4.43;;;2.40;99.90;;;;;;4993131;28;20204;-78
2021/04/08 00:24:26;;;;;;;9.75;3.42;;;2.40;99.90;;;;;;4989046;28;20267;-77
2021/04/08 00:26:53;;;;;;;7.47;3.30;;;2.30;99.90;;;;;;5010638;28;20200;-78
2021/04/08 00:29:19;;;;;;;14.30;4.63;;;2.20;99.90;;;;;;5008740;28;20193;-78
2021/04/08 00:31:46;;;;;;;8.80;4.65;;;2.30;99.90;;;;;;5012224;28;20193;-78
2021/04/08 00:34:14;;;;;;;14.30;4.47;;;2.20;99.90;;;;;;5007994;28;20220;-78
2021/04/08 00:36:41;;;;;;;10.93;4.60;;;2.20;99.90;;;;;;4990170;28;20202;-78
2021/04/08 00:39:07;;;;;;;14.13;4.90;;;2.20;99.90;;;;;;5005152;28;20264;-78
2021/04/08 00:41:34;;;;;;;14.10;3.57;;;2.10;99.90;;;;;;4988934;28;20221;-78
2021/04/08 00:44:02;;;;;;;15.37;5.00;;;2.10;99.90;;;;;;4994052;28;20233;-77
2021/04/08 00:46:29;;;;;;;14.35;4.13;;;2.00;99.90;;;;;;5005656;28;20198;-78
2021/04/08 00:48:55;;;;;;;8.50;4.20;;;2.10;99.90;;;;;;4967299;28;20197;-79
2021/04/08 00:51:24;;;;;;;16.13;3.87;;;2.10;99.90;;;;;;4982457;28;20229;-78
2021/04/08 00:53:53;;;;;;;9.45;3.60;;;2.10;99.90;;;;;;4981818;28;20205;-78
2021/04/08 00:56:20;;;;;;;10.57;3.37;;;2.10;99.90;;;;;;4999049;28;20225;-77
2021/04/08 00:58:48;;;;;;;15.25;4.30;;;2.10;99.90;;;;;;4981197;28;20293;-78
2021/04/08 01:01:15;;;;;;;6.22;2.97;;;2.10;99.90;;;;;;4997190;28;20193;-77
2021/04/08 01:03:42;;;;;;;11.23;3.47;;;2.10;99.90;;;;;;4997944;28;20193;-77
2021/04/08 01:06:09;;;;;;;11.40;3.50;;;2.10;99.90;;;;;;4997160;28;20209;-77
2021/04/08 01:08:37;;;;;;;10.07;3.63;;;2.10;99.90;;;;;;4996953;28;20201;-77
2021/04/08 01:11:04;;;;;;;10.87;3.77;;;2.20;99.90;;;;;;4996668;28;20185;-77
2021/04/08 01:13:32;;;;;;;12.63;3.88;;;2.20;99.90;;;;;;4995137;28;20204;-77
2021/04/08 01:16:05;;;;;;;12.02;4.22;;;2.20;99.90;;;;;;4996311;28;20224;-77
2021/04/08 01:18:42;;;;;;;8.52;3.63;;;2.30;99.90;;;;;;4997918;28;20283;-78
2021/04/08 01:21:14;;;;;;;22.85;4.05;;;2.30;99.90;;;;;;4982099;28;20251;-78
2021/04/08 01:24:24;;;;;;;11.95;4.15;;;2.20;99.90;;;;;;4997057;28;20201;-77
2021/04/08 01:27:22;;;;;;;15.60;4.60;;;2.10;99.90;;;;;;4974875;28;20209;-77
2021/04/08 01:30:03;;;;;;;6.88;3.65;;;2.20;99.90;;;;;;4999223;28;20207;-77
2021/04/08 01:32:34;;;;;;;10.07;4.63;;;2.10;99.90;;;;;;4999900;28;20204;-78
2021/04/08 01:35:05;;;;;;;10.23;4.00;;;2.10;99.90;;;;;;4998163;28;20634;-77
2021/04/08 01:37:39;;;;;;;11.10;3.60;;;2.10;99.90;;;;;;4999797;28;20189;-78
2021/04/08 01:40:08;;;;;;;7.15;4.13;;;2.10;99.90;;;;;;4998645;28;20755;-77
2021/04/08 01:42:36;;;;;;;17.38;4.15;;;2.20;99.90;;;;;;4999471;28;20228;-78
2021/04/08 01:45:17;;;;;;;15.57;4.27;;;2.10;99.90;;;;;;4998610;28;20699;-78
2021/04/08 01:47:46;;;;;;;10.82;4.32;;;2.10;99.90;;;;;;4980974;28;20197;-78
2021/04/08 01:50:15;;;;;;;9.50;2.90;;;2.20;99.90;;;;;;4992004;28;20248;-78
2021/04/08 01:52:45;;;;;;;15.25;3.80;;;2.10;99.90;;;;;;4996859;28;20569;-77
2021/04/08 01:55:31;;;;;;;10.55;3.95;;;2.10;99.90;;;;;;4980875;28;20213;-77
2021/04/08 01:58:00;;;;;;;14.30;3.67;;;2.10;99.90;;;;;;4963086;28;20296;-77
2021/04/08 02:00:27;;;;;;;9.65;2.45;;;2.10;99.90;;;;;;4997398;28;20230;-78
2021/04/08 02:02:57;;;;;;;9.98;2.70;;;2.00;99.90;;;;;;4964671;28;20214;-78
2021/04/08 02:05:25;;;;;;;13.15;3.80;;;2.00;99.90;;;;;;4998277;28;20233;-78
2021/04/08 02:07:55;;;;;;;15.43;3.33;;;2.00;99.90;;;;;;4979987;28;20197;-78
2021/04/08 02:10:24;;;;;;;19.33;4.13;;;2.10;99.90;;;;;;4997255;28;20189;-77
2021/04/08 02:12:55;;;;;;;6.50;3.28;;;2.10;99.90;;;;;;4996899;28;20236;-77
2021/04/08 02:15:24;;;;;;;9.68;2.88;;;2.10;99.90;;;;;;4998624;28;20221;-77
2021/04/08 02:17:54;;;;;;;15.38;3.95;;;2.00;99.90;;;;;;4980182;28;20212;-78
2021/04/08 02:20:26;;;;;;;14.97;6.27;;;2.00;99.90;;;;;;4997917;28;20216;-77
2021/04/08 02:22:55;;;;;;;13.60;4.00;;;2.00;99.90;;;;;;4997483;28;20208;-77
2021/04/08 02:25:24;;;;;;;10.23;3.07;;;2.10;99.90;;;;;;4994920;28;20217;-78
2021/04/08 02:27:52;;;;;;;14.40;3.60;;;2.20;99.90;;;;;;4996897;28;20201;-78
2021/04/08 02:30:22;;;;;;;13.80;3.63;;;2.10;99.90;;;;;;4997944;28;20272;-77
2021/04/08 02:32:50;;;;;;;7.47;2.60;;;2.00;99.90;;;;;;4997922;28;20204;-78
2021/04/08 02:35:18;;;;;;;10.33;3.47;;;2.00;99.90;;;;;;4980053;28;20217;-78
2021/04/08 02:37:47;;;;;;;10.30;3.70;;;2.10;99.90;;;;;;4997728;28;20201;-78
2021/04/08 02:40:16;;;;;;;6.85;3.20;;;2.10;99.90;;;;;;4988613;28;20273;-77
2021/04/08 02:42:43;;;;;;;11.13;3.80;;;2.20;99.90;;;;;;5001204;28;20193;-78
2021/04/08 02:45:11;;;;;;;11.47;4.97;;;2.10;99.90;;;;;;5042163;23;20315;-80
2021/04/08 02:47:38;;;;;;;10.63;4.35;;;2.10;99.90;;;;;;4993383;28;20205;-79
2021/04/08 02:50:06;;;;;;;10.63;4.60;;;2.10;99.90;;;;;;5014832;28;20196;-82
2021/04/08 02:52:40;;;;;;;13.27;3.80;;;2.20;99.90;;;;;;5015762;28;20250;-79
2021/04/08 02:55:14;;;;;;;9.15;3.55;;;2.10;99.90;;;;;;5014411;28;20703;-80
2021/04/08 02:57:49;;;;;;;11.02;4.18;;;2.00;99.90;;;;;;5013444;28;20226;-79
2021/04/08 03:00:18;;;;;;;13.00;4.20;;;2.10;99.90;;;;;;5003707;28;20308;-82
2021/04/08 03:02:46;;;;;;;10.03;3.87;;;2.00;99.90;;;;;;4999222;28;20225;-80
2021/04/08 03:05:14;;;;;;;12.90;4.95;;;1.90;99.90;;;;;;4997385;28;20270;-81
2021/04/08 03:07:44;;;;;;;12.32;3.60;;;1.90;99.90;;;;;;5015001;28;20204;-80
2021/04/08 03:10:14;;;;;;;6.18;2.75;;;1.90;99.90;;;;;;5002220;28;20227;-80
2021/04/08 03:12:46;;;;;;;10.85;3.58;;;1.90;99.90;;;;;;5001357;28;20266;-79
2021/04/08 03:15:15;;;;;;;15.43;4.78;;;2.10;99.90;;;;;;5010513;28;20239;-79
2021/04/08 03:17:45;;;;;;;15.17;4.20;;;2.00;99.90;;;;;;5014252;28;20362;-80
2021/04/08 03:20:14;;;;;;;12.35;3.83;;;2.00;99.90;;;;;;5019533;28;20231;-81
2021/04/08 03:22:43;;;;;;;11.20;3.35;;;2.00;99.90;;;;;;5015092;28;20193;-80
2021/04/08 03:25:13;;;;;;;13.33;3.00;;;1.90;99.90;;;;;;5016776;28;20244;-79
2021/04/08 03:27:40;;;;;;;17.83;3.78;;;1.90;99.90;;;;;;5002632;28;20207;-80
2021/04/08 03:30:11;;;;;;;9.60;4.10;;;2.00;99.90;;;;;;5002180;28;20235;-79
2021/04/08 03:32:38;;;;;;;5.45;2.97;;;2.00;99.90;;;;;;5004408;28;20288;-80
2021/04/08 03:35:08;;;;;;;11.65;3.58;;;1.90;99.90;;;;;;5003727;28;20246;-79
2021/04/08 03:37:35;;;;;;;11.13;3.83;;;1.80;99.90;;;;;;5005348;28;20558;-81
2021/04/08 03:40:04;;;;;;;11.50;3.65;;;1.90;99.90;;;;;;5020787;28;20304;-82
2021/04/08 03:42:33;;;;;;;8.98;2.75;;;2.00;99.90;;;;;;5015646;28;20193;-80
2021/04/08 03:45:00;;;;;;;10.68;3.63;;;1.90;99.90;;;;;;4989646;28;20270;-80
2021/04/08 03:47:28;;;;;;;17.90;3.93;;;1.90;99.90;;;;;;5004576;28;20200;-79
2021/04/08 03:49:56;;;;;;;10.85;3.67;;;1.80;99.90;;;;;;5023982;28;20323;-79
2021/04/08 03:52:23;;;;;;;17.40;3.80;;;1.90;99.90;;;;;;5022910;28;20205;-79
2021/04/08 03:54:51;;;;;;;21.80;4.03;;;1.90;99.90;;;;;;5025801;28;20267;-79
2021/04/08 03:57:20;;;;;;;10.13;4.60;;;1.90;99.90;;;;;;5027015;28;20192;-79
2021/04/08 03:59:51;;;;;;;12.50;3.53;;;2.00;99.90;;;;;;5023091;28;20225;-79
2021/04/08 04:02:20;;;;;;;9.50;3.93;;;1.90;99.90;;;;;;5025424;28;20197;-79
2021/04/08 04:04:49;;;;;;;10.88;3.42;;;2.00;99.90;;;;;;5026438;28;20228;-80
2021/04/08 04:07:16;;;;;;;12.02;2.60;;;1.80;99.90;;;;;;5027118;28;20225;-79
2021/04/08 04:09:43;;;;;;;10.48;3.28;;;1.90;99.90;;;;;;5026289;28;20220;-79
2021/04/08 04:12:15;;;;;;;10.25;3.53;;;2.00;99.90;;;;;;5028450;28;20189;-79
2021/04/08 04:14:44;;;;;;;9.77;4.23;;;2.00;99.90;;;;;;5028004;28;20287;-78
2021/04/08 04:17:25;;;;;;;8.88;3.65;;;1.90;99.90;;;;;;5026474;28;20197;-80
2021/04/08 04:19:52;;;;;;;10.48;3.17;;;1.90;99.90;;;;;;5008134;28;20223;-80
2021/04/08 04:22:19;;;;;;;8.32;2.85;;;1.90;99.90;;;;;;5008000;28;20241;-81
2021/04/08 04:24:46;;;;;;;7.55;3.95;;;2.10;99.90;;;;;;5008375;28;20235;-82
2021/04/08 04:27:13;;;;;;;10.25;3.10;;;2.10;99.90;;;;;;5012865;28;20201;-80
2021/04/08 04:29:40;;;;;;;10.20;4.05;;;2.10;99.90;;;;;;5029151;28;20196;-80
2021/04/08 04:32:08;;;;;;;10.88;3.00;;;2.10;99.90;;;;;;4994817;28;20197;-82
2021/04/08 04:34:36;;;;;;;8.93;3.88;;;2.20;99.90;;;;;;5000211;28;20244;-82
2021/04/08 04:37:03;;;;;;;9.03;3.17;;;2.10;99.90;;;;;;5024751;28;20207;-80
2021/04/08 04:39:30;;;;;;;14.65;3.40;;;2.20;99.90;;;;;;4994426;28;20213;-81
2021/04/08 04:41:58;;;;;;;11.30;3.73;;;2.30;99.90;;;;;;5026306;28;20255;-81
2021/04/08 04:44:24;;;;;;;11.65;3.33;;;2.30;99.90;;;;;;5026268;28;20228;-79
2021/04/08 04:46:52;;;;;;;21.83;5.60;;;2.40;99.90;;;;;;5009646;28;20212;-79
2021/04/08 04:49:18;;;;;;;9.77;3.07;;;2.60;99.90;;;;;;5043670;28;20211;-81
2021/04/08 04:51:46;;;;;;;11.85;3.65;;;2.60;99.90;;;;;;5009421;28;20668;-80
2021/04/08 04:54:13;;;;;;;10.23;4.03;;;2.50;99.90;;;;;;5027404;28;20750;-80
2021/04/08 04:56:40;;;;;;;10.02;4.55;;;2.40;99.90;;;;;;5020103;28;20247;-80
2021/04/08 04:59:06;;;;;;;7.68;4.05;;;2.40;99.90;;;;;;5025795;28;20625;-80
2021/04/08 05:01:33;;;;;;;10.50;3.07;;;2.50;99.90;;;;;;5006016;28;20201;-80
2021/04/08 05:04:00;;;;;;;15.43;5.10;;;2.60;99.90;;;;;;5023564;28;20205;-80
2021/04/08 05:06:27;;;;;;;8.38;3.63;;;2.70;99.90;;;;;;5012252;28;20204;-84
2021/04/08 05:08:55;;;;;;;10.65;3.38;;;2.80;99.90;;;;;;5031186;28;20231;-79
2021/04/08 05:11:21;;;;;;;10.07;4.07;;;2.70;99.90;;;;;;5014366;28;20205;-82
2021/04/08 05:13:49;;;;;;;8.60;3.25;;;2.60;99.90;;;;;;5033928;28;20219;-81
2021/04/08 05:16:19;;;;;;;12.98;4.13;;;2.60;99.90;;;;;;5023750;28;20613;-80
2021/04/08 05:18:46;;;;;;;10.00;3.40;;;2.60;99.90;;;;;;5035350;28;20203;-82
2021/04/08 05:21:13;;;;;;;12.88;3.92;;;2.50;99.90;;;;;;5035290;28;20220;-80
2021/04/08 05:23:39;;;;;;;10.52;3.70;;;2.50;99.90;;;;;;5033393;28;20208;-79
2021/04/08 05:26:07;;;;;;;9.55;4.90;;;2.70;99.90;;;;;;5025881;28;20220;-80
2021/04/08 05:28:34;;;;;;;7.47;3.08;;;2.80;99.90;;;;;;4999385;28;20201;-78
2021/04/08 05:31:01;;;;;;;9.75;3.08;;;2.80;99.90;;;;;;5006780;28;20264;-80
2021/04/08 05:33:27;;;;;;;14.63;3.50;;;2.80;99.90;;;;;;5031274;28;20256;-79
2021/04/08 05:35:54;;;;;;;9.90;4.18;;;2.60;99.90;;;;;;5012809;28;20251;-80
2021/04/08 05:38:21;;;;;;;8.07;3.45;;;2.60;99.90;;;;;;5028812;28;20215;-79
2021/04/08 05:40:47;;;;;;;8.77;3.50;;;2.60;99.90;;;;;;5029921;28;20289;-80
2021/04/08 05:43:16;;;;;;;15.60;4.07;;;2.60;99.90;;;;;;5010291;28;20201;-79
2021/04/08 05:45:45;;;;;;;19.15;5.22;;;2.60;99.90;;;;;;5008490;28;20256;-80
2021/04/08 05:48:12;;;;;;;16.02;5.38;;;2.60;99.90;;;;;;5024579;28;20718;-78
2021/04/08 05:50:39;;;;;;;15.70;4.85;;;2.80;99.90;;;;;;5028561;28;20223;-80
2021/04/08 05:53:06;;;;;;;10.38;4.05;;;2.80;99.90;;;;;;5008397;28;20291;-80
2021/04/08 05:55:33;;;;;;;12.35;3.63;;;3.00;99.90;;;;;;5022677;28;20243;-79
2021/04/08 05:58:00;;;;;;;6.70;5.03;;;3.20;99.90;;;;;;5010393;28;20200;-79
2021/04/08 06:00:27;;;;;;;9.10;4.30;;;3.00;99.90;;;;;;5027528;28;20221;-83
2021/04/08 06:02:54;;;;;;;16.10;3.92;;;2.90;99.90;;;;;;5025505;28;20192;-82
2021/04/08 06:05:22;;;;;;;11.50;4.57;;;2.90;99.90;;;;;;5027002;28;20300;-80
2021/04/08 06:07:48;;;;;;;13.88;3.67;;;2.80;99.90;;;;;;5009415;28;20296;-80
2021/04/08 06:10:15;;;;;;;7.18;3.33;;;2.80;99.90;;;;;;5024601;28;20196;-81
2021/04/08 06:12:43;;;;;;;13.33;4.67;;;2.80;99.90;;;;;;5024775;28;20200;-80
2021/04/08 06:15:11;;;;;;;11.40;4.35;;;2.90;99.90;;;;;;5025312;28;20319;-81
2021/04/08 06:17:39;;;;;;;10.75;3.83;;;3.00;99.90;;;;;;5026389;28;20196;-80
2021/04/08 06:20:08;;;;;;;8.85;3.40;;;2.90;99.90;;;;;;5026001;28;20265;-81
2021/04/08 06:22:35;;;;;;;7.55;3.85;;;3.10;99.90;;;;;;5009580;28;20208;-80
2021/04/08 06:25:02;;;;;;;9.90;3.97;;;3.00;99.90;;;;;;5004614;28;20298;-80
2021/04/08 06:27:32;;;;;;;8.90;4.15;;;3.00;99.90;;;;;;5023407;28;20235;-82
2021/04/08 06:29:58;;;;;;;8.20;3.03;;;3.00;99.90;;;;;;5023188;28;20284;-83
2021/04/08 06:32:35;;;;;;;12.82;3.40;;;3.00;99.90;;;;;;5006702;28;20193;-80
2021/04/08 06:35:02;;;;;;;8.63;3.58;;;3.10;99.90;;;;;;5025564;28;20285;-81
2021/04/08 06:37:29;;;;;;;7.78;2.95;;;3.10;99.90;;;;;;5008436;28;20209;-82
2021/04/08 06:39:56;;;;;;;6.23;3.33;;;3.00;99.90;;;;;;5007451;28;20236;-79
2021/04/08 06:42:23;;;;;;;8.75;3.08;;;3.10;99.90;;;;;;4991878;28;20240;-80
2021/04/08 06:44:53;;;;;;;12.88;3.20;;;3.30;99.90;;;;;;5023974;28;20272;-81
2021/04/08 06:47:26;;;;;;;10.60;2.90;;;3.30;99.90;;;;;;5022907;28;20204;-81
2021/04/08 06:49:57;;;;;;;8.57;2.40;;;3.30;99.90;;;;;;5006866;28;20204;-83
2021/04/08 06:52:25;;;;;;;9.37;3.70;;;3.40;99.90;;;;;;5021562;28;20236;-80
2021/04/08 06:54:53;;;;;;;10.02;2.92;;;3.40;99.90;;;;;;5005804;28;20252;-80
2021/04/08 06:57:20;;;;;;;8.95;3.15;;;3.40;99.90;;;;;;5022324;28;20209;-80
2021/04/08 06:59:48;;;;;;;8.88;3.08;;;3.40;99.90;;;;;;5023053;28;20271;-81
2021/04/08 07:02:17;;;;;;;10.63;3.75;;;3.40;99.90;;;;;;5008213;28;20211;-82
2021/04/08 07:04:44;;;;;;;5.28;3.60;;;3.50;99.90;;;;;;5007408;28;20259;-81
2021/04/08 07:07:11;;;;;;;9.73;2.95;;;3.60;99.90;;;;;;4997112;28;20227;-82
2021/04/08 07:09:39;;;;;;;9.77;3.30;;;3.60;99.90;;;;;;5008762;28;20298;-80
2021/04/08 07:12:06;;;;;;;6.05;2.92;;;3.70;99.90;;;;;;5027563;28;20688;-79
2021/04/08 07:14:33;;;;;;;6.72;3.65;;;3.90;99.90;;;;;;5028283;28;20631;-80
2021/04/08 07:17:00;;;;;;;8.88;3.58;;;3.90;99.90;;;;;;5028763;28;20193;-80
2021/04/08 07:19:29;;;;;;;5.00;2.87;;;4.10;99.90;;;;;;5029007;28;20197;-79
2021/04/08 07:22:00;;;;;;;17.20;3.88;;;4.20;99.90;;;;;;5029571;28;20192;-83
2021/04/08 07:24:27;;;;;;;7.07;3.70;;;4.30;99.90;;;;;;5007667;28;20728;-80
2021/04/08 07:26:58;;;;;;;7.50;3.42;;;4.20;99.90;;;;;;5016459;28;20259;-82
2021/04/08 07:29:44;;;;;;;10.10;3.42;;;4.20;99.90;;;;;;5029230;28;20223;-82
2021/04/08 07:32:13;;;;;;;6.95;2.88;;;4.10;99.90;;;;;;5025555;28;20205;-79
2021/04/08 07:34:42;;;;;;;6.20;2.30;;;4.10;99.90;;;;;;5023157;28;20611;-80
2021/04/08 07:37:09;;;;;;;8.95;4.47;;;4.20;99.90;;;;;;5009537;28;20203;-79
2021/04/08 07:39:37;;;;;;;7.97;2.97;;;4.20;99.90;;;;;;5028874;28;20217;-82
2021/04/08 07:42:08;;;;;;;8.98;3.90;;;4.30;99.90;;;;;;5028310;28;20219;-80
2021/04/08 07:44:46;;;;;;;10.15;3.30;;;4.50;99.90;;;;;;5026501;28;20232;-81
2021/04/08 07:47:25;;;;;;;11.68;4.00;;;4.40;99.90;;;;;;5026678;28;20204;-82
2021/04/08 07:49:54;;;;;;;6.90;3.00;;;4.60;99.90;;;;;;5009695;28;20196;-83
2021/04/08 07:52:31;;;;;;;9.77;2.53;;;4.70;99.90;;;;;;5021836;28;20224;-81
2021/04/08 07:55:14;;;;;;;10.95;3.67;;;4.80;99.90;;;;;;5022468;28;20217;-80
2021/04/08 07:57:58;;;;;;;9.57;2.70;;;4.90;99.90;;;;;;5022387;28;20250;-81
2021/04/08 08:00:28;;;;;;;6.93;2.58;;;5.00;99.90;;;;;;5019023;28;20226;-81
2021/04/08 08:02:57;;;;;;;12.30;3.33;;;5.20;99.90;;;;;;5021305;28;20200;-82
2021/04/08 08:05:26;;;;;;;10.05;3.67;;;5.40;99.90;;;;;;5021756;28;20246;-81
2021/04/08 08:08:11;;;;;;;7.43;3.47;;;5.30;99.90;;;;;;5019101;28;20227;-81
2021/04/08 08:10:40;;;;;;;6.20;3.45;;;5.40;99.90;;;;;;5020819;28;20185;-82
2021/04/08 08:13:24;;;;;;;10.70;2.88;;;5.40;99.90;;;;;;5020202;28;20215;-82
2021/04/08 08:15:51;;;;;;;4.65;2.95;;;5.40;99.90;;;;;;5018560;28;20224;-82
2021/04/08 08:18:29;;;;;;;10.55;3.45;;;5.30;99.90;;;;;;5021286;28;20193;-83
2021/04/08 08:21:05;;;;;;;4.95;2.88;;;5.50;99.90;;;;;;5001188;28;20204;-85
2021/04/08 08:23:38;;;;;;;8.13;3.78;;;5.70;99.90;;;;;;5019414;28;20189;-83
2021/04/08 08:26:25;;;;;;;13.65;3.83;;;5.70;99.90;;;;;;5018769;28;20227;-84
2021/04/08 08:28:53;;;;;;;5.82;3.05;;;5.30;99.90;;;;;;5020600;28;20288;-83
2021/04/08 08:31:43;;;;;;;8.60;2.90;;;5.50;99.90;;;;;;5002657;28;20189;-83
2021/04/08 08:34:12;;;;;;;6.45;2.33;;;5.50;99.90;;;;;;4980071;28;20211;-83
2021/04/08 08:36:41;;;;;;;8.57;3.35;;;5.40;99.90;;;;;;5001761;28;20231;-83
2021/04/08 08:39:10;;;;;;;5.47;3.38;;;5.40;99.90;;;;;;5018451;28;20200;-81
2021/04/08 08:41:38;;;;;;;13.15;2.70;;;5.60;99.90;;;;;;5001993;28;20213;-84
2021/04/08 08:44:08;;;;;;;7.25;2.65;;;5.80;99.90;;;;;;5020763;28;20220;-84
2021/04/08 08:46:42;;;;;;;8.45;3.03;;;5.70;99.90;;;;;;5057077;22;20249;-79
2021/04/08 08:49:09;;;;;;;6.40;3.10;;;5.90;99.90;;;;;;5044704;28;20236;-79
2021/04/08 08:51:37;;;;;;;8.20;2.80;;;6.20;99.90;;;;;;5043116;28;20192;-78
2021/04/08 08:54:05;;;;;;;5.32;2.42;;;6.30;99.90;;;;;;5043015;28;20208;-79
2021/04/08 08:56:35;;;;;;;6.70;2.87;;;6.20;99.90;;;;;;5058936;28;20234;-79
2021/04/08 08:59:02;;;;;;;8.27;2.97;;;5.90;99.90;;;;;;5060057;28;20203;-79
2021/04/08 09:01:29;;;;;;;9.23;2.95;;;6.10;99.90;;;;;;5054677;28;20234;-78
2021/04/08 09:04:04;;;;;;;5.80;2.10;;;6.20;99.90;;;;;;5052071;28;20208;-78
2021/04/08 09:06:32;;;;;;;7.00;2.70;;;6.20;99.90;;;;;;5056122;28;20288;-79
2021/04/08 09:09:08;;;;;;;7.35;2.80;;;6.20;99.90;;;;;;5055246;28;20208;-79
2021/04/08 09:11:36;;;;;;;8.13;3.10;;;6.40;99.90;;;;;;5058230;28;20192;-78
2021/04/08 09:14:03;;;;;;;8.60;2.80;;;6.80;99.90;;;;;;5055257;28;20211;-78
2021/04/08 09:16:32;;;;;;;6.28;2.53;;;6.70;99.90;;;;;;5054624;28;20211;-77
2021/04/08 09:19:00;;;;;;;11.93;3.28;;;6.80;99.90;;;;;;5044131;28;20213;-78
2021/04/08 09:21:42;;;;;;;4.53;2.65;;;6.80;99.90;;;;;;5059087;28;20222;-78
2021/04/08 09:24:18;;;;;;;9.38;2.55;;;6.60;99.90;;;;;;5051765;28;20192;-81
2021/04/08 09:26:50;;;;;;;9.32;2.58;;;6.50;99.90;;;;;;5059485;28;20227;-81
2021/04/08 09:29:42;;;;;;;6.43;2.78;;;6.30;99.90;;;;;;5054536;28;20206;-81
2021/04/08 09:32:31;;;;;;;3.78;2.15;;;5.90;99.90;;;;;;5071193;28;20172;-80
2021/04/08 09:35:09;;;;;;;4.53;2.65;;;5.70;99.90;;;;;;5069387;28;20215;-79
2021/04/08 09:38:08;;;;;;;7.10;2.85;;;5.80;99.90;;;;;;5047931;28;20605;-81
2021/04/08 09:40:52;;;;;;;8.15;3.50;;;5.90;99.90;;;;;;5052462;28;20293;-78
2021/04/08 09:43:22;;;;;;;5.60;2.55;;;6.00;99.90;;;;;;5054609;28;20276;-77
2021/04/08 09:45:57;;;;;;;6.47;2.03;;;5.80;99.90;;;;;;5052677;28;20223;-78
2021/04/08 09:48:26;;;;;;;3.35;2.15;;;5.80;99.90;;;;;;5055753;28;20191;-76
2021/04/08 09:50:54;;;;;;;5.65;2.53;;;5.90;99.90;;;;;;5056267;28;20597;-79
2021/04/08 09:53:23;;;;;;;7.68;3.25;;;6.20;99.90;;;;;;5056988;28;20195;-79
2021/04/08 09:55:52;;;;;;;4.65;2.60;;;6.30;99.90;;;;;;5053659;28;20242;-80
2021/04/08 09:58:21;;;;;;;8.52;2.42;;;6.40;99.90;;;;;;5057851;28;20401;-79
2021/04/08 10:00:49;;;;;;;6.47;3.50;;;6.80;99.90;;;;;;5059800;28;20298;-79
2021/04/08 10:03:29;;;;;;;5.05;2.88;;;7.00;99.90;;;;;;5058531;28;20700;-79
2021/04/08 10:05:56;;;;;;;6.95;2.95;;;6.80;99.90;;;;;;5059025;28;20211;-81
2021/04/08 10:08:24;;;;;;;5.22;2.38;;;6.50;99.90;;;;;;5062798;28;20206;-80
2021/04/08 10:10:52;;;;;;;9.30;2.47;;;6.50;99.90;;;;;;5063737;28;20207;-79
2021/04/08 10:13:22;;;;;;;5.57;3.17;;;6.50;99.90;;;;;;5062396;28;20196;-80
2021/04/08 10:15:52;;;;;;;3.55;2.03;;;6.30;99.90;;;;;;5063628;28;20227;-80
2021/04/08 10:18:21;;;;;;;8.77;2.60;;;6.20;99.90;;;;;;5064598;28;20234;-77
2021/04/08 10:20:50;;;;;;;5.07;1.92;;;6.00;99.90;;;;;;5055051;28;20218;-78
2021/04/08 10:23:30;;;;;;;5.07;1.85;;;6.00;99.90;;;;;;5056322;28;20613;-78
2021/04/08 10:25:58;;;;;;;3.47;2.03;;;5.90;99.90;;;;;;5057824;28;20218;-78
2021/04/08 10:28:25;;;;;;;3.47;2.30;;;5.90;99.90;;;;;;5058142;28;20582;-78
2021/04/08 10:30:52;;;;;;;7.82;2.35;;;6.00;99.90;;;;;;5060652;28;20187;-78
2021/04/08 10:33:20;;;;;;;3.90;2.40;;;6.20;99.90;;;;;;5058585;28;20222;-78
2021/04/08 10:35:48;;;;;;;5.00;2.17;;;5.90;99.90;;;;;;5058048;28;20226;-78
2021/04/08 10:38:15;;;;;;;5.18;2.40;;;5.50;99.90;;;;;;5056525;28;20228;-79
2021/04/08 10:40:50;;;;;;;5.07;3.42;;;5.10;99.90;;;;;;5061330;28;20211;-79
2021/04/08 10:43:18;;;;;;;6.53;2.65;;;5.10;99.90;;;;;;5059855;28;20262;-79
2021/04/08 10:45:53;;;;;;;6.60;2.97;;;5.10;99.90;;;;;;5051551;28;20519;-78
2021/04/08 10:48:21;;;;;;;2.38;1.98;;;5.20;99.90;;;;;;5051648;28;20187;-78
2021/04/08 10:50:50;;;;;;;4.00;2.13;;;5.30;99.90;;;;;;5047873;28;20191;-78
2021/04/08 10:53:20;;;;;;;6.00;2.83;;;5.60;99.90;;;;;;5043095;28;20290;-78
2021/04/08 10:55:47;;;;;;;5.68;3.35;;;5.60;99.90;;;;;;5038531;28;20770;-78
2021/04/08 10:58:24;;;;;;;3.00;2.70;;;5.70;99.90;;;;;;5046466;28;20229;-78
2021/04/08 11:00:52;;;;;;;3.70;2.10;;;5.80;99.90;;;;;;5043861;28;20239;-78
2021/04/08 11:03:19;;;;;;;5.70;2.72;;;6.10;99.90;;;;;;5048261;28;20188;-78
2021/04/08 11:05:48;;;;;;;5.25;2.20;;;6.10;99.90;;;;;;5050544;28;20229;-78
2021/04/08 11:08:15;;;;;;;3.83;2.08;;;6.10;99.90;;;;;;5050565;28;20198;-78
2021/04/08 11:10:42;;;;;;;3.28;2.08;;;5.60;99.90;;;;;;5051327;28;20242;-78
2021/04/08 11:13:10;;;;;;;4.30;1.95;;;5.70;99.90;;;;;;5049054;28;20795;-78
2021/04/08 11:15:39;;;;;;;3.90;2.40;;;5.70;99.90;;;;;;5048660;28;20216;-77
2021/04/08 11:18:08;;;;;;;3.60;2.45;;;5.70;99.90;;;;;;5049637;28;20274;-78
2021/04/08 11:20:37;;;;;;;7.00;3.53;;;5.80;99.90;;;;;;5046805;28;20222;-78
2021/04/08 11:23:06;;;;;;;6.65;2.25;;;5.80;99.90;;;;;;5050316;28;20223;-78
2021/04/08 11:25:34;;;;;;;5.90;2.38;;;5.90;99.90;;;;;;5048428;28;20241;-78
2021/04/08 11:28:03;;;;;;;3.83;2.63;;;6.10;99.90;;;;;;5053915;28;20191;-78
2021/04/08 11:30:34;;;;;;;9.70;3.53;;;6.10;99.90;;;;;;5050738;28;20683;-78
2021/04/08 11:33:01;;;;;;;7.32;2.65;;;6.30;99.90;;;;;;5047208;28;20777;-78
2021/04/08 11:35:32;;;;;;;4.60;2.13;;;6.40;99.90;;;;;;5048830;28;20224;-78
2021/04/08 11:38:13;;;;;;;4.63;2.40;;;6.60;99.90;;;;;;5051598;28;20675;-77
2021/04/08 11:40:42;;;;;;;10.85;2.38;;;6.70;99.90;;;;;;5043028;28;20861;-79
2021/04/08 11:43:23;;;;;;;6.25;3.17;;;6.50;99.90;;;;;;5038685;28;20574;-78
2021/04/08 11:45:50;;;;;;;7.28;3.00;;;6.50;99.90;;;;;;5054188;28;20223;-79
2021/04/08 11:48:19;;;;;;;9.35;3.67;;;6.60;99.90;;;;;;5058636;28;20211;-79
2021/04/08 11:50:47;;;;;;;6.25;2.65;;;6.90;99.90;;;;;;5056513;28;20222;-78
2021/04/08 11:53:18;;;;;;;6.00;2.55;;;6.80;99.90;;;;;;5059135;28;20226;-79
2021/04/08 11:55:46;;;;;;;5.15;2.45;;;6.70;99.90;;;;;;5059963;28;20219;-79
2021/04/08 11:58:23;;;;;;;3.67;2.10;;;6.60;99.90;;;;;;5058567;28;20210;-78
2021/04/08 12:00:51;;;;;;;4.25;2.17;;;6.60;99.90;;;;;;5059213;28;20199;-79
2021/04/08 12:03:20;;;;;;;4.00;2.00;;;6.60;99.90;;;;;;5062247;28;20202;-78
2021/04/08 12:05:48;;;;;;;4.05;2.80;;;6.50;99.90;;;;;;5061692;28;20227;-78
2021/04/08 12:08:36;;;;;;;5.80;2.25;;;6.50;99.90;;;;;;5043270;28;20238;-79
2021/04/08 12:11:03;;;;;;;3.05;2.30;;;6.50;99.90;;;;;;5069366;28;20195;-79
2021/04/08 12:13:30;;;;;;;4.03;2.03;;;6.50;99.90;;;;;;5068090;28;20203;-79
2021/04/08 12:15:56;;;;;;;6.60;2.72;;;6.30;99.90;;;;;;5066657;28;20215;-79
2021/04/08 12:18:26;;;;;;;7.85;3.08;;;6.40;99.90;;;;;;5063289;28;20246;-78
2021/04/08 12:20:53;;;;;;;6.15;2.30;;;6.60;99.90;;;;;;5062254;28;20235;-81
2021/04/08 12:23:23;;;;;;;3.90;2.72;;;6.70;99.90;;;;;;5065629;28;20210;-80
2021/04/08 12:25:51;;;;;;;3.83;2.85;;;6.50;99.90;;;;;;5062816;28;20274;-80
2021/04/08 12:28:19;;;;;;;13.85;3.20;;;6.40;99.90;;;;;;5063627;28;20241;-80
2021/04/08 12:30:56;;;;;;;6.75;2.47;;;6.30;99.90;;;;;;5067757;28;20209;-79
2021/04/08 12:33:25;;;;;;;3.60;2.63;;;6.20;99.90;;;;;;5064994;28;20203;-79
2021/04/08 12:35:51;;;;;;;4.28;2.65;;;6.20;99.90;;;;;;5054727;28;20214;-80
2021/04/08 12:38:20;;;;;;;3.40;2.60;;;6.10;99.90;;;;;;5060704;28;20207;-81
2021/04/08 12:40:48;;;;;;;9.07;3.42;;;6.40;99.90;;;;;;5059828;28;20227;-80
2021/04/08 12:43:15;;;;;;;4.35;2.78;;;6.60;99.90;;;;;;5052357;28;20250;-79
2021/04/08 12:45:45;;;;;;;19.23;16.05;;;6.70;99.90;;;;;;5059732;28;20336;-81
2021/04/08 12:48:12;;;;;;;23.67;15.20;;;6.80;99.90;;;;;;5066734;28;20233;-81
2021/04/08 12:50:41;;;;;;;32.75;25.38;;;6.90;99.90;;;;;;5063516;28;20199;-80
2021/04/08 12:53:08;;;;;;;4.35;3.58;;;7.20;99.90;;;;;;5058690;28;20202;-81
2021/04/08 12:55:36;;;;;;;7.13;4.85;;;7.20;99.90;;;;;;5053228;28;20890;-79
2021/04/08 12:58:03;;;;;;;6.38;2.45;;;7.30;99.90;;;;;;5055390;28;20200;-79
2021/04/08 13:00:30;;;;;;;6.90;2.40;;;7.10;99.90;;;;;;5056618;28;20211;-79
2021/04/08 13:02:57;;;;;;;7.32;3.15;;;7.20;99.90;;;;;;5057161;28;20227;-79
2021/04/08 13:05:24;;;;;;;6.65;3.67;;;7.20;99.90;;;;;;5057086;28;20246;-79
2021/04/08 13:07:52;;;;;;;5.32;2.53;;;7.40;99.90;;;;;;5056610;28;20253;-81